createdAt,value
2022-11-16T00:02:21.882Z,23.50
2022-11-16T00:04:49.961Z,24.00
2022-11-16T00:07:18.014Z,23.40
2022-11-16T00:09:46.963Z,24.20
2022-11-16T00:12:14.955Z,23.10
2022-11-16T00:14:42.915Z,22.20
2022-11-16T00:17:10.883Z,24.90
2022-11-16T00:19:38.823Z,23.40
2022-11-16T00:22:06.777Z,22.90
2022-11-16T00:24:34.809Z,23.70
2022-11-16T00:27:02.749Z,22.80
2022-11-16T00:29:30.639Z,26.60
2022-11-16T00:31:58.646Z,25.70
2022-11-16T00:34:28.055Z,27.90
2022-11-16T00:36:56.031Z,27.60
2022-11-16T00:39:24.227Z,27.80
2022-11-16T00:41:52.219Z,26.10
2022-11-16T00:44:20.347Z,25.60
2022-11-16T00:46:48.709Z,27.10
2022-11-16T00:49:16.616Z,29.60
2022-11-16T00:51:44.618Z,23.60
2022-11-16T00:54:12.763Z,26.60
2022-11-16T00:56:40.881Z,26.30
2022-11-16T00:59:08.827Z,28.80
2022-11-16T01:01:36.844Z,28.40
2022-11-16T01:04:05.054Z,27.00
2022-11-16T01:06:33.125Z,27.90
2022-11-16T01:09:01.911Z,25.90
2022-11-16T01:11:48.605Z,28.20
2022-11-16T01:14:16.779Z,29.80
2022-11-16T01:16:44.845Z,25.80
2022-11-16T01:19:12.852Z,26.40
2022-11-16T01:21:40.803Z,28.90
2022-11-16T01:24:09.069Z,30.30
2022-11-16T01:26:37.085Z,31.70
2022-11-16T01:29:05.379Z,29.90
2022-11-16T01:31:37.482Z,26.40
2022-11-16T01:34:06.142Z,27.40
2022-11-16T01:36:36.760Z,28.20
2022-11-16T01:39:05.589Z,23.60
2022-11-16T01:41:44.339Z,22.70
2022-11-16T01:44:15.362Z,22.80
2022-11-16T01:46:54.152Z,23.90
2022-11-16T01:49:25.334Z,21.80
2022-11-16T01:52:01.732Z,22.90
2022-11-16T01:54:38.007Z,20.40
2022-11-16T01:57:09.797Z,21.60
2022-11-16T01:59:46.020Z,18.60
2022-11-16T02:02:17.632Z,20.30
2022-11-16T02:04:49.043Z,19.10
2022-11-16T02:08:13.227Z,19.60
2022-11-16T02:11:16.207Z,17.90
2022-11-16T02:14:23.270Z,18.60
2022-11-16T02:17:12.747Z,18.60
2022-11-16T02:19:59.807Z,20.40
2022-11-16T02:22:30.768Z,18.60
2022-11-16T02:25:40.153Z,19.00
2022-11-16T02:28:34.127Z,18.90
2022-11-16T02:31:06.563Z,20.00
2022-11-16T02:33:39.269Z,17.80
2022-11-16T02:36:11.448Z,16.90
2022-11-16T02:38:44.940Z,17.20
2022-11-16T02:41:19.976Z,17.60
2022-11-16T02:43:57.043Z,17.40
2022-11-16T02:46:31.306Z,17.00
2022-11-16T02:49:03.795Z,16.90
2022-11-16T02:51:35.012Z,17.00
2022-11-16T02:54:12.886Z,16.40
2022-11-16T02:57:03.961Z,16.10
2022-11-16T02:59:46.926Z,17.80
2022-11-16T03:02:31.588Z,16.60
2022-11-16T03:05:04.078Z,18.40
2022-11-16T03:07:44.270Z,17.50
2022-11-16T03:10:32.792Z,17.90
2022-11-16T03:13:03.700Z,20.40
2022-11-16T03:15:36.842Z,19.40
2022-11-16T03:18:08.453Z,21.60
2022-11-16T03:20:39.009Z,21.10
2022-11-16T03:23:11.318Z,20.50
2022-11-16T03:25:51.602Z,21.30
2022-11-16T03:28:27.591Z,24.00
2022-11-16T03:31:02.465Z,26.70
2022-11-16T03:33:39.625Z,27.90
2022-11-16T03:36:23.937Z,22.10
2022-11-16T03:38:52.990Z,24.10
2022-11-16T03:41:24.512Z,25.00
2022-11-16T03:43:56.979Z,22.60
2022-11-16T03:46:25.281Z,32.40
2022-11-16T03:49:01.191Z,22.90
2022-11-16T03:51:32.996Z,25.50
2022-11-16T03:54:01.078Z,25.40
2022-11-16T03:56:29.135Z,24.30
2022-11-16T03:58:58.087Z,21.00
2022-11-16T04:01:26.119Z,20.80
2022-11-16T04:03:54.669Z,21.30
2022-11-16T04:06:41.316Z,18.80
2022-11-16T04:09:28.868Z,19.20
2022-11-16T04:12:15.924Z,20.40
2022-11-16T04:15:02.988Z,21.60
2022-11-16T04:17:50.611Z,19.70
2022-11-16T04:20:37.378Z,17.30
2022-11-16T04:23:30.123Z,17.50
2022-11-16T04:25:58.238Z,18.10
2022-11-16T04:28:34.255Z,18.10
2022-11-16T04:31:24.361Z,18.00
2022-11-16T04:34:16.501Z,16.50
2022-11-16T04:37:06.347Z,16.30
2022-11-16T04:39:34.505Z,17.00
2022-11-16T04:42:14.707Z,16.50
2022-11-16T04:45:02.374Z,14.80
2022-11-16T04:47:35.271Z,18.10
2022-11-16T04:50:04.712Z,16.10
2022-11-16T04:52:33.097Z,15.90
2022-11-16T04:55:01.949Z,16.00
2022-11-16T04:57:30.194Z,17.40
2022-11-16T04:59:58.683Z,18.80
2022-11-16T05:02:26.688Z,18.00
2022-11-16T05:04:57.554Z,19.70
2022-11-16T05:07:26.121Z,20.40
2022-11-16T05:10:00.380Z,18.30
2022-11-16T05:12:28.822Z,19.10
2022-11-16T05:15:00.080Z,19.00
2022-11-16T05:17:29.931Z,17.90
2022-11-16T05:20:18.361Z,19.00
2022-11-16T05:22:58.828Z,17.10
2022-11-16T05:25:36.131Z,16.40
2022-11-16T05:28:06.211Z,17.70
2022-11-16T05:30:37.197Z,18.00
2022-11-16T05:33:05.448Z,18.30
2022-11-16T05:35:36.066Z,20.10
2022-11-16T05:38:04.038Z,19.20
2022-11-16T05:40:33.428Z,19.80
2022-11-16T05:43:02.097Z,21.20
2022-11-16T05:45:32.168Z,23.60
2022-11-16T05:48:00.757Z,21.70
2022-11-16T05:50:28.978Z,23.40
2022-11-16T05:53:11.090Z,25.80
2022-11-16T05:55:39.258Z,24.60
2022-11-16T05:58:07.388Z,25.80
2022-11-16T06:00:35.741Z,26.50
2022-11-16T06:03:04.360Z,26.70
2022-11-16T06:05:40.188Z,25.00
2022-11-16T06:08:09.146Z,27.90
2022-11-16T06:10:37.225Z,27.30
2022-11-16T06:13:05.620Z,24.80
2022-11-16T06:15:38.279Z,29.60
2022-11-16T06:18:07.056Z,27.00
2022-11-16T06:20:37.405Z,27.80
2022-11-16T06:23:06.123Z,25.30
2022-11-16T06:25:34.524Z,26.90
2022-11-16T06:28:07.555Z,23.60
2022-11-16T06:30:38.444Z,23.70
2022-11-16T06:33:08.085Z,23.20
2022-11-16T06:35:36.384Z,24.80
2022-11-16T06:38:05.219Z,23.10
2022-11-16T06:40:34.094Z,24.30
2022-11-16T06:43:02.714Z,41.90
2022-11-16T06:45:30.771Z,23.80
2022-11-16T06:48:00.497Z,23.70
2022-11-16T06:50:28.527Z,22.10
2022-11-16T06:52:56.550Z,24.10
2022-11-16T06:55:24.575Z,22.90
2022-11-16T06:57:53.260Z,23.70
2022-11-16T07:00:21.916Z,25.10
2022-11-16T07:02:50.666Z,22.50
2022-11-16T07:05:19.850Z,18.50
2022-11-16T07:07:48.041Z,18.00
2022-11-16T07:10:16.854Z,18.30
2022-11-16T07:12:45.011Z,45.50
2022-11-16T07:15:13.772Z,19.00
2022-11-16T07:17:43.012Z,20.90
2022-11-16T07:20:12.230Z,22.40
2022-11-16T07:22:40.576Z,23.70
2022-11-16T07:25:11.544Z,23.20
2022-11-16T07:27:39.701Z,22.10
2022-11-16T07:30:08.589Z,21.70
2022-11-16T07:33:11.850Z,21.50
2022-11-16T07:36:07.685Z,23.50
2022-11-16T07:38:36.617Z,23.30
2022-11-16T07:41:14.124Z,24.30
2022-11-16T07:43:53.012Z,24.00
2022-11-16T07:49:16.947Z,28.20
2022-11-16T07:52:10.272Z,30.10
2022-11-16T07:54:45.227Z,27.90
2022-11-16T07:57:14.272Z,30.40
2022-11-16T07:59:42.601Z,28.60
2022-11-16T08:02:11.290Z,29.50
2022-11-16T08:04:40.768Z,28.10
2022-11-16T08:07:09.099Z,27.60
2022-11-16T08:09:43.301Z,25.30
2022-11-16T08:12:13.386Z,26.20
2022-11-16T08:14:41.382Z,26.50
2022-11-16T08:17:09.515Z,26.40
2022-11-16T08:19:40.414Z,24.70
2022-11-16T08:22:09.182Z,27.20
2022-11-16T08:24:37.377Z,28.70
2022-11-16T08:27:05.647Z,29.40
2022-11-16T08:29:33.588Z,28.00
2022-11-16T08:32:01.999Z,28.20
2022-11-16T08:34:29.881Z,28.20
2022-11-16T08:37:00.087Z,28.30
2022-11-16T08:39:38.823Z,29.50
2022-11-16T08:42:07.131Z,32.20
2022-11-16T08:44:35.904Z,32.30
2022-11-16T08:47:06.989Z,27.20
2022-11-16T08:49:38.938Z,29.30
2022-11-16T08:52:07.185Z,30.50
2022-11-16T08:54:35.460Z,28.50
2022-11-16T08:57:03.566Z,30.90
2022-11-16T08:59:32.142Z,30.80
2022-11-16T09:02:03.944Z,31.80
2022-11-16T09:04:36.840Z,33.20
2022-11-16T09:07:05.227Z,29.80
2022-11-16T09:09:33.283Z,31.30
2022-11-16T09:12:01.168Z,33.80
2022-11-16T09:14:30.741Z,33.30
2022-11-16T09:16:58.763Z,33.70
2022-11-16T09:19:26.817Z,29.80
2022-11-16T09:21:54.884Z,32.50
2022-11-16T09:24:22.856Z,29.50
2022-11-16T09:26:50.809Z,31.70
2022-11-16T09:29:18.730Z,31.40
2022-11-16T09:31:47.134Z,34.10
2022-11-16T09:34:15.338Z,31.10
2022-11-16T09:36:43.226Z,30.40
2022-11-16T09:43:00.017Z,28.40
2022-11-16T09:46:07.077Z,29.80
2022-11-16T09:48:37.872Z,30.00
2022-11-16T09:51:10.061Z,29.80
2022-11-16T09:53:58.452Z,28.80
2022-11-16T09:56:31.291Z,32.20
2022-11-16T09:59:11.087Z,30.10
2022-11-16T10:01:44.332Z,30.60
2022-11-16T10:04:39.523Z,31.10
2022-11-16T10:07:31.637Z,31.50
2022-11-16T10:09:59.749Z,35.50
2022-11-16T10:12:43.676Z,30.20
2022-11-16T10:15:17.967Z,31.70
2022-11-16T10:17:46.073Z,31.60
2022-11-16T10:20:34.004Z,33.40
2022-11-16T10:23:18.669Z,33.30
2022-11-16T10:25:53.911Z,34.20
2022-11-16T10:29:00.556Z,33.00
2022-11-16T10:31:38.329Z,38.50
2022-11-16T10:34:09.608Z,39.30
2022-11-16T10:36:38.600Z,42.60
2022-11-16T10:39:13.999Z,43.20
2022-11-16T10:41:46.379Z,43.30
2022-11-16T10:44:36.669Z,44.60
2022-11-16T10:47:06.130Z,42.00
2022-11-16T10:49:55.865Z,40.00
2022-11-16T10:52:25.273Z,43.20
2022-11-16T10:54:53.401Z,42.50
2022-11-16T10:57:23.823Z,42.50
2022-11-16T10:59:57.879Z,40.80
2022-11-16T11:02:31.478Z,42.10
2022-11-16T11:05:20.816Z,39.80
2022-11-16T11:08:01.931Z,36.50
2022-11-16T11:10:36.246Z,37.10
2022-11-16T11:13:10.408Z,34.20
2022-11-16T11:15:40.803Z,33.30
2022-11-16T11:18:19.835Z,32.90
2022-11-16T11:21:06.676Z,29.40
2022-11-16T11:23:47.650Z,29.50
2022-11-16T11:26:36.513Z,29.50
2022-11-16T11:29:27.192Z,28.70
2022-11-16T11:32:00.187Z,25.80
2022-11-16T11:34:31.951Z,26.60
2022-11-16T11:37:05.243Z,27.20
2022-11-16T11:39:35.631Z,25.50
2022-11-16T11:42:12.845Z,25.50
2022-11-16T11:44:49.890Z,25.60
2022-11-16T11:47:56.380Z,25.50
2022-11-16T11:50:26.072Z,25.80
2022-11-16T11:53:08.000Z,23.20
2022-11-16T11:55:36.181Z,22.90
2022-11-16T11:58:06.305Z,24.60
2022-11-16T12:01:02.044Z,23.90
2022-11-16T12:03:52.177Z,25.80
2022-11-16T12:06:38.757Z,25.30
2022-11-16T12:09:30.269Z,26.40
2022-11-16T12:12:24.391Z,27.70
2022-11-16T12:14:58.457Z,30.40
2022-11-16T12:17:49.437Z,32.00
2022-11-16T12:20:36.171Z,30.30
2022-11-16T12:23:44.756Z,27.30
2022-11-16T12:26:31.203Z,28.40
2022-11-16T12:29:23.620Z,29.90
2022-11-16T12:31:54.587Z,27.90
2022-11-16T12:34:44.211Z,28.40
2022-11-16T12:37:40.530Z,28.50
2022-11-16T12:40:20.753Z,30.90
2022-11-16T12:43:02.392Z,32.10
2022-11-16T12:45:46.500Z,30.80
2022-11-16T12:48:26.030Z,34.80
2022-11-16T12:51:03.906Z,32.30
2022-11-16T12:53:50.735Z,31.10
2022-11-16T12:56:29.678Z,32.70
2022-11-16T12:59:12.818Z,31.70
2022-11-16T13:02:00.569Z,31.00
2022-11-16T13:04:36.079Z,31.50
2022-11-16T13:07:10.886Z,36.20
2022-11-16T13:09:48.006Z,29.60
2022-11-16T13:12:19.509Z,29.30
2022-11-16T13:14:51.558Z,29.50
2022-11-16T13:17:25.661Z,27.90
2022-11-16T13:20:02.673Z,28.40
2022-11-16T13:22:34.419Z,30.70
2022-11-16T13:25:19.205Z,29.20
2022-11-16T13:27:52.123Z,30.00
2022-11-16T13:30:22.532Z,27.40
2022-11-16T13:33:08.806Z,27.50
2022-11-16T13:35:38.917Z,27.60
2022-11-16T13:38:14.233Z,26.70
2022-11-16T13:40:42.374Z,26.50
2022-11-16T13:43:10.360Z,27.00
2022-11-16T13:45:49.948Z,26.80
2022-11-16T13:48:38.615Z,27.20
2022-11-16T13:51:16.751Z,27.10
2022-11-16T13:56:49.602Z,27.60
2022-11-16T13:59:25.448Z,29.50
2022-11-16T14:02:02.514Z,29.00
2022-11-16T14:04:56.080Z,28.60
2022-11-16T14:07:50.071Z,28.90
2022-11-16T14:10:33.494Z,29.80
2022-11-16T14:13:05.894Z,28.80
2022-11-16T14:15:36.157Z,29.50
2022-11-16T14:18:07.092Z,30.70
2022-11-16T14:20:37.968Z,29.00
2022-11-16T14:23:31.273Z,32.00
2022-11-16T14:26:19.452Z,30.20
2022-11-16T14:29:15.476Z,34.00
2022-11-16T14:31:54.194Z,35.20
2022-11-16T14:34:31.754Z,36.40
2022-11-16T14:37:00.470Z,34.00
2022-11-16T14:39:33.594Z,34.10
2022-11-16T14:42:15.139Z,35.30
2022-11-16T14:44:43.871Z,36.60
2022-11-16T14:47:21.059Z,34.00
2022-11-16T14:49:49.547Z,35.20
2022-11-16T14:52:22.415Z,35.60
2022-11-16T14:54:53.738Z,36.50
2022-11-16T14:57:24.387Z,37.10
2022-11-16T15:00:12.480Z,37.70
2022-11-16T15:02:41.156Z,36.20
2022-11-16T15:05:16.926Z,36.40
2022-11-16T15:07:49.811Z,36.30
2022-11-16T15:10:23.482Z,36.10
2022-11-16T15:12:52.571Z,32.50
2022-11-16T15:15:26.871Z,34.30
2022-11-16T15:18:18.980Z,32.40
2022-11-16T15:20:49.736Z,34.90
2022-11-16T15:23:19.698Z,34.30
2022-11-16T15:25:55.543Z,35.20
2022-11-16T15:28:29.555Z,35.50
2022-11-16T15:31:07.345Z,35.10
2022-11-16T15:33:42.759Z,46.00
2022-11-16T15:36:38.059Z,46.30
2022-11-16T15:39:13.097Z,36.20
2022-11-16T15:41:42.097Z,33.70
2022-11-16T15:44:16.114Z,35.60
2022-11-16T15:46:48.451Z,35.40
2022-11-16T15:49:32.310Z,35.30
2022-11-16T15:52:01.158Z,34.30
2022-11-16T15:54:52.606Z,31.60
2022-11-16T15:57:23.071Z,33.70
2022-11-16T15:59:57.327Z,34.00
2022-11-16T16:02:29.070Z,33.80
2022-11-16T16:04:57.297Z,34.40
2022-11-16T16:07:41.803Z,36.20
2022-11-16T16:10:19.047Z,35.70
2022-11-16T16:12:50.019Z,37.70
2022-11-16T16:15:30.591Z,36.80
2022-11-16T16:17:59.044Z,36.40
2022-11-16T16:20:30.196Z,36.00
2022-11-16T16:23:13.116Z,36.60
2022-11-16T16:25:43.646Z,36.90
2022-11-16T16:28:14.129Z,35.60
2022-11-16T16:30:43.246Z,31.80
2022-11-16T16:33:22.060Z,36.90
2022-11-16T16:35:51.085Z,34.40
2022-11-16T16:38:18.974Z,33.10
2022-11-16T16:40:46.927Z,32.90
2022-11-16T16:43:14.794Z,32.90
2022-11-16T16:45:43.855Z,33.20
2022-11-16T16:48:12.811Z,43.00
2022-11-16T16:50:41.366Z,37.10
2022-11-16T16:53:13.953Z,39.50
2022-11-16T16:55:43.682Z,39.30
2022-11-16T16:58:12.466Z,38.30
2022-11-16T17:00:41.880Z,37.90
2022-11-16T17:03:09.875Z,36.50
2022-11-16T17:05:37.818Z,34.20
2022-11-16T17:08:06.168Z,34.70
2022-11-16T17:10:34.109Z,42.10
2022-11-16T17:13:03.233Z,38.10
2022-11-16T17:15:31.240Z,34.30
2022-11-16T17:17:59.940Z,37.30
2022-11-16T17:20:28.030Z,35.20
2022-11-16T17:22:56.668Z,35.90
2022-11-16T17:25:24.593Z,34.70
2022-11-16T17:27:52.535Z,33.70
2022-11-16T17:30:20.470Z,35.10
2022-11-16T17:32:48.558Z,37.40
2022-11-16T17:35:16.943Z,35.50
2022-11-16T17:37:44.853Z,36.80
2022-11-16T17:40:13.304Z,38.90
2022-11-16T17:42:43.091Z,35.00
2022-11-16T17:45:12.103Z,35.70
2022-11-16T17:47:40.958Z,34.20
2022-11-16T17:50:09.416Z,31.30
2022-11-16T17:52:37.304Z,32.50
2022-11-16T17:55:05.651Z,33.40
2022-11-16T17:57:33.562Z,32.90
2022-11-16T18:00:01.649Z,33.60
2022-11-16T18:02:29.608Z,34.20
2022-11-16T18:04:57.493Z,35.80
2022-11-16T18:07:26.665Z,35.50
2022-11-16T18:09:55.038Z,35.40
2022-11-16T18:12:22.949Z,35.10
2022-11-16T18:15:21.211Z,35.50
2022-11-16T18:17:38.739Z,31.60
2022-11-16T18:20:08.538Z,32.80
2022-11-16T18:22:36.480Z,33.80
2022-11-16T18:25:04.747Z,29.90
2022-11-16T18:27:32.692Z,29.80
2022-11-16T18:30:00.646Z,29.60
2022-11-16T18:32:30.071Z,30.00
2022-11-16T18:34:58.132Z,32.40
2022-11-16T18:37:26.072Z,32.60
2022-11-16T18:39:54.076Z,30.90
2022-11-16T18:42:21.991Z,32.30
2022-11-16T18:44:51.471Z,31.20
2022-11-16T18:47:19.488Z,29.00
2022-11-16T18:49:47.470Z,30.70
2022-11-16T18:52:15.467Z,30.80
2022-11-16T18:54:43.434Z,29.90
2022-11-16T18:57:11.354Z,29.50
2022-11-16T18:59:39.265Z,28.50
2022-11-16T19:02:07.233Z,30.10
2022-11-16T19:04:35.272Z,30.80
2022-11-16T19:07:03.951Z,30.70
2022-11-16T19:09:32.113Z,29.50
2022-11-16T19:12:00.138Z,31.50
2022-11-16T19:14:28.119Z,32.00
2022-11-16T19:16:57.436Z,35.30
2022-11-16T19:19:27.759Z,34.30
2022-11-16T19:21:57.074Z,32.70
2022-11-16T19:24:25.768Z,33.30
2022-11-16T19:26:53.796Z,32.20
2022-11-16T19:29:21.779Z,34.30
2022-11-16T19:31:49.753Z,32.50
2022-11-16T19:34:33.285Z,33.00
2022-11-16T19:37:02.629Z,33.60
2022-11-16T19:39:30.802Z,33.30
2022-11-16T19:41:59.070Z,35.50
2022-11-16T19:44:27.543Z,37.20
2022-11-16T19:46:57.010Z,33.40
2022-11-16T19:49:26.106Z,31.40
2022-11-16T19:51:54.771Z,31.50
2022-11-16T19:54:22.985Z,33.70
2022-11-16T19:56:55.243Z,34.60
2022-11-16T19:59:23.789Z,30.60
2022-11-16T20:01:52.071Z,30.20
2022-11-16T20:04:20.354Z,30.10
2022-11-16T20:06:48.501Z,28.00
2022-11-16T20:09:16.586Z,29.40
2022-11-16T20:11:44.756Z,30.40
2022-11-16T20:14:13.996Z,28.70
2022-11-16T20:16:45.822Z,27.50
2022-11-16T20:19:14.961Z,28.00
2022-11-16T20:21:46.481Z,26.60
2022-11-16T20:24:17.869Z,27.00
2022-11-16T20:26:48.456Z,26.60
2022-11-16T20:29:18.342Z,27.00
2022-11-16T20:31:47.023Z,26.90
2022-11-16T20:34:16.616Z,25.00
2022-11-16T20:36:47.419Z,25.50
2022-11-16T20:39:20.136Z,23.80
2022-11-16T20:41:49.808Z,23.40
2022-11-16T20:44:22.082Z,23.90
2022-11-16T20:46:52.694Z,22.40
2022-11-16T21:26:26.165Z,22.90
